CheckWX is a tool to help pilots better visualize weather data.  It is not intended as a substitute for an official pre-flight weather briefing.

10:37:51 UTC

KLRD METAR
Laredo International Airport
Laredo, Texas, USA
Current

16 mins ago

KLRD 141022Z AUTO 17004KT 10SM BKN014 OVC030 23/20 A2994 RMK AO2
Observed
Oct-14 @ 10:22 UTC
Wind
  • 170° at 4 KTS
Visibility
10 SM
Flight Rules
MVFR
Cloud Levels
  • Broken at 1,400' AGL
  • Overcast at 3,000' AGL
Temperature
23°C / 73°F
Dewpoint
20°C / 68°F
Humidity
83%
Altimeter
29.94" Hg
Pressure
1013.92 hPa
Previous

42 mins ago

KLRD 140956Z AUTO 00000KT 10SM FEW012 OVC030 23/19 A2994 RMK AO2 SLP134 T02330189
Observed
Oct-14 @ 09:56 UTC
Visibility
10 SM
Flight Rules
MVFR
Cloud Levels
  • Few at 1,200' AGL
  • Overcast at 3,000' AGL
Temperature
23°C / 73°F
Dewpoint
19°C / 66°F
Humidity
78%
Altimeter
29.94" Hg
Pressure
1013.92 hPa
Previous

58 mins ago

KLRD 140940Z AUTO 00000KT 10SM SCT014 OVC032 23/18 A2994 RMK AO2
Observed
Oct-14 @ 09:40 UTC
Visibility
10 SM
Flight Rules
VFR
Cloud Levels
  • Scattered at 1,400' AGL
  • Overcast at 3,200' AGL
Temperature
23°C / 73°F
Dewpoint
18°C / 64°F
Humidity
74%
Altimeter
29.94" Hg
Pressure
1013.92 hPa